Time;durP1;ratioP1;P1;durP2;ratioP2;P2;SDS_P1;SDS_P2;PMS_P1;PMS_P2;Temp;Humidity;BMP_temperature;BMP_pressure;BME280_temperature;BME280_humidity;BME280_pressure;Samples;Min_cycle;Max_cycle;Signal;HPM_P1;HPM_P2
2022/05/21 00:01:20;;;;;;;6.35;3.60;;;10.90;99.90;;;;;;5032460;28;20045;-72
2022/05/21 00:03:46;;;;;;;5.50;4.22;;;10.50;99.90;;;;;;5039972;28;20041;-72
2022/05/21 00:06:11;;;;;;;7.25;4.43;;;10.90;99.90;;;;;;5042295;28;20805;-72
2022/05/21 00:08:37;;;;;;;8.23;3.65;;;10.90;99.90;;;;;;5042663;28;20057;-72
2022/05/21 00:11:03;;;;;;;10.82;4.18;;;10.90;99.90;;;;;;5042022;28;20068;-72
2022/05/21 00:13:29;;;;;;;7.28;3.60;;;10.90;99.90;;;;;;5041212;28;20091;-72
2022/05/21 00:15:55;;;;;;;6.18;4.72;;;10.90;99.90;;;;;;5041833;28;20116;-72
2022/05/21 00:18:21;;;;;;;9.07;4.00;;;10.90;99.90;;;;;;5041989;28;20065;-72
2022/05/21 00:20:49;;;;;;;6.80;4.60;;;10.90;99.90;;;;;;5041150;28;20056;-72
2022/05/21 00:23:31;;;;;;;8.65;6.25;;;10.90;99.90;;;;;;5041828;28;20088;-72
2022/05/21 00:26:02;;;;;;;6.30;5.07;;;10.90;99.90;;;;;;5042422;28;20045;-72
2022/05/21 00:28:28;;;;;;;10.20;5.63;;;10.90;99.90;;;;;;5041647;28;20132;-72
2022/05/21 00:30:55;;;;;;;9.02;5.40;;;11.00;99.90;;;;;;5041933;28;20486;-71
2022/05/21 00:33:22;;;;;;;8.77;6.55;;;11.00;99.90;;;;;;5041685;28;20045;-72
2022/05/21 00:35:48;;;;;;;12.13;6.07;;;11.00;99.90;;;;;;5042382;28;20091;-72
2022/05/21 00:38:15;;;;;;;12.18;6.93;;;11.00;99.90;;;;;;5042129;28;20049;-72
2022/05/21 00:40:41;;;;;;;8.13;6.70;;;11.00;99.90;;;;;;5042082;28;20049;-71
2022/05/21 00:43:27;;;;;;;9.85;7.15;;;11.00;99.90;;;;;;5041700;28;20432;-72
2022/05/21 00:45:52;;;;;;;13.90;8.00;;;11.00;99.90;;;;;;5040006;28;20426;-72
2022/05/21 00:48:18;;;;;;;9.75;7.13;;;11.10;99.90;;;;;;5041564;28;20605;-72
2022/05/21 00:50:44;;;;;;;10.77;8.38;;;11.00;99.90;;;;;;5041621;28;20099;-72
2022/05/21 00:53:11;;;;;;;10.50;8.02;;;11.00;99.90;;;;;;5041106;28;20067;-72
2022/05/21 00:55:37;;;;;;;13.38;9.15;;;11.10;99.90;;;;;;5041166;28;20055;-72
2022/05/21 01:00:55;;;;;;;17.45;7.88;;;11.10;99.90;;;;;;5041980;28;20150;-72
2022/05/21 01:03:23;;;;;;;14.43;8.65;;;11.10;99.90;;;;;;5041256;28;20048;-71
2022/05/21 01:05:49;;;;;;;13.88;8.05;;;11.10;99.90;;;;;;5041588;28;20122;-72
2022/05/21 01:08:15;;;;;;;13.27;7.60;;;11.10;99.90;;;;;;5041311;28;20404;-72
2022/05/21 01:10:46;;;;;;;12.30;8.75;;;11.20;99.90;;;;;;5040471;28;20088;-72
2022/05/21 01:13:16;;;;;;;12.07;7.40;;;11.10;99.90;;;;;;5041282;28;20060;-72
2022/05/21 01:15:46;;;;;;;11.82;9.15;;;11.20;99.90;;;;;;5040763;28;20045;-72
2022/05/21 01:18:12;;;;;;;13.98;8.05;;;11.20;99.90;;;;;;5041462;28;20087;-72
2022/05/21 01:20:44;;;;;;;13.30;9.25;;;11.20;99.90;;;;;;5041932;28;20135;-72
2022/05/21 01:23:11;;;;;;;12.85;8.65;;;11.20;99.90;;;;;;5040258;28;20048;-72
2022/05/21 01:25:38;;;;;;;12.73;10.10;;;11.10;99.90;;;;;;5040527;28;20075;-72
2022/05/21 01:28:08;;;;;;;11.40;9.90;;;11.20;99.90;;;;;;5022645;28;20061;-72
2022/05/21 01:30:40;;;;;;;15.32;10.65;;;11.30;99.90;;;;;;5040523;28;20419;-72
2022/05/21 01:33:09;;;;;;;19.50;12.75;;;11.30;99.90;;;;;;5022935;28;20056;-72
2022/05/21 01:35:35;;;;;;;16.65;10.80;;;11.30;99.90;;;;;;5040824;28;20059;-72
2022/05/21 01:38:01;;;;;;;17.48;11.13;;;11.40;99.90;;;;;;5002562;28;20044;-72
2022/05/21 01:40:28;;;;;;;18.60;12.32;;;11.40;99.90;;;;;;5032464;28;20049;-72
2022/05/21 01:45:38;;;;;;;20.23;13.82;;;11.50;99.90;;;;;;5039935;28;20091;-72
2022/05/21 01:48:04;;;;;;;18.45;13.00;;;11.50;99.90;;;;;;5038900;28;20143;-72
2022/05/21 01:50:31;;;;;;;22.55;14.60;;;11.50;99.90;;;;;;5037057;28;20132;-72
2022/05/21 01:52:57;;;;;;;26.75;15.43;;;11.50;99.90;;;;;;5036809;28;20049;-72
2022/05/21 01:55:23;;;;;;;22.75;15.63;;;11.60;99.90;;;;;;5037317;28;20056;-72
2022/05/21 01:57:50;;;;;;;22.45;15.43;;;11.60;99.90;;;;;;5038279;28;20040;-72
2022/05/21 02:00:17;;;;;;;27.17;17.20;;;11.70;99.90;;;;;;5039557;28;20101;-72
2022/05/21 02:02:42;;;;;;;29.90;18.33;;;11.70;99.90;;;;;;5037979;28;20055;-72
2022/05/21 02:05:09;;;;;;;26.80;17.05;;;11.70;99.90;;;;;;5037893;28;20515;-72
2022/05/21 02:07:35;;;;;;;34.65;19.13;;;11.70;99.90;;;;;;5037564;28;20451;-72
2022/05/21 02:10:02;;;;;;;22.92;18.45;;;11.80;99.90;;;;;;5037726;28;20072;-72
2022/05/21 02:12:28;;;;;;;24.92;17.65;;;11.80;99.90;;;;;;5016498;28;20099;-72
2022/05/21 02:14:57;;;;;;;27.33;17.58;;;11.80;99.90;;;;;;5037012;28;20481;-72
2022/05/21 02:17:23;;;;;;;32.55;20.30;;;11.90;99.90;;;;;;5035861;28;20037;-72
2022/05/21 02:19:49;;;;;;;26.63;17.65;;;11.90;99.90;;;;;;5035987;28;20052;-73
2022/05/21 02:22:16;;;;;;;29.52;21.05;;;11.90;99.90;;;;;;5033702;28;20045;-72
2022/05/21 02:24:41;;;;;;;28.20;20.23;;;11.90;99.90;;;;;;5035787;28;20075;-72
2022/05/21 02:27:14;;;;;;;30.38;19.77;;;12.00;99.90;;;;;;5035567;28;20765;-72
2022/05/21 02:29:41;;;;;;;33.03;18.38;;;12.00;99.90;;;;;;5018518;28;20098;-73
2022/05/21 02:32:08;;;;;;;32.63;21.27;;;12.00;99.90;;;;;;5035868;28;20044;-72
2022/05/21 02:34:34;;;;;;;33.63;21.48;;;12.10;99.90;;;;;;5034700;28;20175;-72
2022/05/21 02:39:44;;;;;;;28.65;19.17;;;12.10;99.90;;;;;;5036107;28;20048;-72
2022/05/21 02:44:55;;;;;;;23.98;18.15;;;12.20;99.90;;;;;;5038508;28;20114;-72
2022/05/21 02:47:21;;;;;;;34.20;19.77;;;12.20;99.90;;;;;;5037923;28;20111;-71
2022/05/21 02:49:47;;;;;;;22.75;16.75;;;12.30;99.90;;;;;;5038014;28;20044;-71
2022/05/21 02:52:15;;;;;;;29.95;17.80;;;12.30;99.90;;;;;;5035836;28;20056;-72
2022/05/21 02:54:41;;;;;;;31.33;17.98;;;12.30;99.90;;;;;;5037875;28;20045;-71
2022/05/21 02:57:09;;;;;;;25.20;17.85;;;12.30;99.90;;;;;;5037512;28;20048;-71
2022/05/21 02:59:36;;;;;;;25.30;17.50;;;12.30;99.90;;;;;;5019743;28;20053;-72
2022/05/21 03:02:01;;;;;;;28.02;17.55;;;12.30;99.90;;;;;;5037422;28;20128;-72
2022/05/21 03:04:28;;;;;;;27.17;16.67;;;12.30;99.90;;;;;;5037991;28;20049;-71
2022/05/21 03:06:53;;;;;;;29.27;17.42;;;12.30;99.90;;;;;;5037013;28;20045;-71
2022/05/21 03:12:04;;;;;;;25.17;16.08;;;12.40;99.90;;;;;;5037270;28;20064;-71
2022/05/21 03:14:30;;;;;;;23.58;14.52;;;12.40;99.90;;;;;;5037365;28;20169;-71
2022/05/21 03:16:59;;;;;;;21.27;14.18;;;12.50;99.90;;;;;;5037338;28;20477;-71
2022/05/21 03:19:26;;;;;;;23.27;13.27;;;12.50;99.90;;;;;;5019356;28;20052;-71
2022/05/21 03:21:52;;;;;;;18.80;12.60;;;12.50;99.90;;;;;;5018829;28;20041;-72
2022/05/21 03:24:18;;;;;;;18.42;13.05;;;12.60;99.90;;;;;;5037159;28;20049;-72
2022/05/21 03:26:43;;;;;;;19.30;15.13;;;12.50;99.90;;;;;;5017969;28;20044;-71
2022/05/21 03:29:09;;;;;;;19.58;13.27;;;12.60;99.90;;;;;;5037095;28;20088;-72
2022/05/21 03:31:35;;;;;;;19.92;11.55;;;12.60;99.90;;;;;;5036570;28;20122;-72
2022/05/21 03:34:01;;;;;;;17.83;12.60;;;12.60;99.90;;;;;;5036856;28;20083;-72
2022/05/21 03:36:26;;;;;;;23.13;12.80;;;12.60;99.90;;;;;;5037446;28;20057;-72
2022/05/21 03:38:52;;;;;;;22.95;13.00;;;12.60;99.90;;;;;;5037903;28;20516;-71
2022/05/21 03:41:18;;;;;;;20.55;12.00;;;12.60;99.90;;;;;;5018111;28;20110;-71
2022/05/21 03:43:44;;;;;;;23.40;11.57;;;12.70;99.90;;;;;;5036509;28;20427;-72
2022/05/21 03:46:10;;;;;;;17.08;11.18;;;12.70;99.90;;;;;;5037332;28;20044;-71
2022/05/21 03:48:36;;;;;;;20.25;12.18;;;12.70;99.90;;;;;;5037480;28;20310;-72
2022/05/21 03:51:02;;;;;;;13.30;10.77;;;12.70;99.90;;;;;;5036301;28;20048;-71
2022/05/21 03:53:28;;;;;;;17.17;11.48;;;12.80;99.90;;;;;;5036638;28;20076;-72
2022/05/21 03:55:55;;;;;;;21.92;10.73;;;12.80;99.90;;;;;;5034076;28;20091;-72
2022/05/21 03:58:21;;;;;;;12.30;8.70;;;12.80;99.90;;;;;;5034527;28;20052;-72
2022/05/21 04:00:48;;;;;;;18.63;9.90;;;12.90;99.90;;;;;;5034722;28;20555;-72
2022/05/21 04:03:14;;;;;;;16.17;9.55;;;12.80;99.90;;;;;;5035185;28;20087;-71
2022/05/21 04:05:39;;;;;;;19.15;10.45;;;12.90;99.90;;;;;;5034710;28;20049;-72
2022/05/21 04:08:06;;;;;;;18.05;8.52;;;12.90;99.90;;;;;;5035006;28;20495;-72
2022/05/21 04:10:31;;;;;;;11.52;8.05;;;12.90;99.90;;;;;;5035494;28;20037;-74
2022/05/21 04:12:57;;;;;;;14.98;7.82;;;12.90;99.90;;;;;;5035164;28;20122;-73
2022/05/21 04:15:23;;;;;;;15.05;7.82;;;12.90;99.90;;;;;;5033978;28;20048;-73
2022/05/21 04:17:48;;;;;;;13.82;6.72;;;13.00;99.90;;;;;;5034344;28;20033;-72
2022/05/21 04:20:17;;;;;;;11.60;6.57;;;12.90;99.90;;;;;;5034635;28;20548;-73
2022/05/21 04:22:43;;;;;;;12.77;5.50;;;13.00;99.90;;;;;;5034280;28;20069;-73
2022/05/21 04:25:10;;;;;;;14.18;5.40;;;13.00;99.90;;;;;;5016905;28;20353;-73
2022/05/21 04:27:39;;;;;;;9.75;5.35;;;13.10;99.90;;;;;;5034096;28;20068;-73
2022/05/21 04:30:07;;;;;;;14.60;6.75;;;13.20;99.90;;;;;;5034697;28;20049;-73
2022/05/21 04:32:33;;;;;;;20.55;7.35;;;13.10;99.90;;;;;;5034189;28;20041;-72
2022/05/21 04:34:58;;;;;;;19.67;6.20;;;13.10;99.90;;;;;;5031663;28;20115;-72
2022/05/21 04:37:24;;;;;;;8.45;4.88;;;13.20;99.90;;;;;;5032350;28;20052;-72
2022/05/21 04:39:50;;;;;;;10.38;4.47;;;13.20;99.90;;;;;;5032356;28;20040;-72
2022/05/21 04:42:16;;;;;;;9.95;4.65;;;13.20;99.90;;;;;;5032191;28;20044;-72
2022/05/21 04:44:41;;;;;;;10.90;4.35;;;13.30;99.90;;;;;;5032208;28;20048;-72
2022/05/21 04:47:07;;;;;;;10.57;5.32;;;13.30;99.90;;;;;;5016690;28;20040;-73
2022/05/21 04:49:34;;;;;;;9.35;4.75;;;13.30;99.90;;;;;;5035544;28;20465;-73
2022/05/21 04:52:02;;;;;;;8.07;5.15;;;13.30;99.90;;;;;;5034231;28;20044;-73
2022/05/21 04:54:29;;;;;;;10.65;4.30;;;13.30;99.90;;;;;;5034652;28;20049;-73
2022/05/21 04:56:54;;;;;;;13.27;6.05;;;13.30;99.90;;;;;;5035260;28;20059;-73
2022/05/21 04:59:20;;;;;;;5.53;4.47;;;13.30;99.90;;;;;;5017176;28;20041;-74
2022/05/21 05:01:46;;;;;;;9.05;4.68;;;13.30;99.90;;;;;;5034349;28;20115;-74
2022/05/21 05:04:11;;;;;;;7.15;3.65;;;13.30;99.90;;;;;;5016671;28;20160;-73
2022/05/21 05:06:38;;;;;;;7.22;3.42;;;13.20;99.90;;;;;;5033942;28;20373;-74
2022/05/21 05:09:06;;;;;;;7.63;4.07;;;13.20;99.90;;;;;;5015688;28;20081;-72
2022/05/21 05:11:32;;;;;;;15.95;4.47;;;13.20;99.90;;;;;;5015578;28;20050;-74
2022/05/21 05:13:58;;;;;;;7.70;4.38;;;13.30;99.90;;;;;;5034819;28;20036;-72
2022/05/21 05:16:24;;;;;;;8.73;3.58;;;13.40;99.90;;;;;;5017124;28;20056;-73
2022/05/21 05:18:49;;;;;;;5.72;3.90;;;13.50;99.90;;;;;;5034136;28;20095;-73
2022/05/21 05:21:15;;;;;;;7.25;3.15;;;13.60;99.90;;;;;;5034215;28;20808;-71
2022/05/21 05:23:40;;;;;;;8.23;3.35;;;13.60;99.90;;;;;;5034024;28;20898;-72
2022/05/21 05:26:06;;;;;;;9.07;3.60;;;13.60;99.90;;;;;;5016133;28;20572;-73
2022/05/21 05:28:32;;;;;;;8.43;3.53;;;13.70;99.90;;;;;;5034752;28;20053;-72
2022/05/21 05:30:58;;;;;;;8.60;3.45;;;13.70;99.90;;;;;;5016973;28;20692;-72
2022/05/21 05:33:24;;;;;;;8.73;4.25;;;13.80;99.90;;;;;;5035182;28;20536;-71
2022/05/21 05:35:52;;;;;;;4.47;3.00;;;13.80;99.90;;;;;;5035093;28;20059;-71
2022/05/21 05:38:19;;;;;;;7.07;3.30;;;13.80;99.90;;;;;;5034391;28;20080;-71
2022/05/21 05:40:47;;;;;;;10.50;4.22;;;13.90;99.90;;;;;;5034213;28;20067;-72
2022/05/21 05:43:15;;;;;;;8.15;3.60;;;13.90;99.90;;;;;;5017234;28;20508;-72
2022/05/21 05:45:41;;;;;;;8.52;3.28;;;14.00;99.90;;;;;;5033623;28;20047;-71
2022/05/21 05:48:07;;;;;;;6.40;3.55;;;14.00;99.90;;;;;;5033869;28;20584;-71
2022/05/21 05:50:33;;;;;;;14.40;3.08;;;14.00;99.90;;;;;;5034541;28;20061;-72
2022/05/21 05:53:07;;;;;;;4.82;2.90;;;14.00;99.90;;;;;;5030522;28;20053;-73
2022/05/21 05:55:34;;;;;;;9.35;4.63;;;14.00;99.90;;;;;;5034340;28;20142;-73
2022/05/21 05:59:48;;;;;;;6.63;2.85;;;14.00;99.90;;;;;;5033010;28;20081;-71
2022/05/21 06:00:46;;;;;;;7.05;3.08;;;14.00;99.90;;;;;;5034287;28;20091;-71
2022/05/21 06:03:11;;;;;;;5.32;2.97;;;14.00;99.90;;;;;;5033570;28;20127;-71
2022/05/21 06:05:37;;;;;;;9.27;3.08;;;14.00;99.90;;;;;;5033139;28;20055;-71
2022/05/21 06:08:05;;;;;;;12.00;3.20;;;14.10;99.90;;;;;;5034124;28;20119;-72
2022/05/21 06:10:36;;;;;;;6.63;3.30;;;14.30;99.90;;;;;;5015544;28;20544;-72
2022/05/21 06:13:04;;;;;;;5.72;2.97;;;14.40;99.90;;;;;;5031862;28;20129;-73
2022/05/21 06:15:30;;;;;;;7.15;3.80;;;14.50;99.90;;;;;;5034495;28;20044;-71
2022/05/21 06:17:55;;;;;;;5.75;3.45;;;14.60;99.90;;;;;;5033857;28;20130;-71
2022/05/21 06:20:25;;;;;;;10.82;4.40;;;14.50;99.90;;;;;;5015039;28;20047;-71
2022/05/21 06:22:51;;;;;;;9.65;3.28;;;14.50;99.90;;;;;;5033024;28;20122;-71
2022/05/21 06:25:23;;;;;;;7.75;3.72;;;14.60;99.90;;;;;;5016304;28;20041;-70
2022/05/21 06:27:50;;;;;;;8.27;3.15;;;14.60;99.90;;;;;;5015850;28;20092;-70
2022/05/21 06:30:19;;;;;;;4.18;3.72;;;14.80;99.90;;;;;;5033812;28;20136;-70
2022/05/21 06:32:44;;;;;;;9.07;3.67;;;15.40;99.90;;;;;;5032030;28;20048;-70
2022/05/21 06:35:12;;;;;;;4.75;3.25;;;15.60;99.90;;;;;;5014182;28;20049;-70
2022/05/21 06:37:37;;;;;;;5.93;3.17;;;15.60;99.90;;;;;;5031743;28;20037;-70
2022/05/21 06:40:05;;;;;;;8.45;3.80;;;15.50;99.90;;;;;;5028376;28;20056;-70
2022/05/21 06:42:31;;;;;;;6.35;3.20;;;15.60;99.90;;;;;;5030853;28;20075;-71
2022/05/21 06:44:56;;;;;;;6.65;3.15;;;15.80;99.90;;;;;;5030608;28;20053;-71
2022/05/21 06:47:22;;;;;;;11.00;2.95;;;16.20;99.90;;;;;;5030538;28;20049;-71
2022/05/21 06:49:51;;;;;;;8.27;3.13;;;16.50;99.90;;;;;;5030688;28;20886;-71
2022/05/21 06:52:17;;;;;;;6.40;3.30;;;16.40;99.90;;;;;;5030436;28;20140;-71
2022/05/21 06:54:42;;;;;;;6.20;2.97;;;16.20;99.90;;;;;;5030921;28;20742;-71
2022/05/21 06:57:10;;;;;;;8.77;3.78;;;16.30;99.90;;;;;;5031112;28;20126;-71
2022/05/21 06:59:36;;;;;;;9.55;3.80;;;16.60;99.90;;;;;;5030200;28;20121;-71
2022/05/21 07:02:02;;;;;;;7.60;3.25;;;16.50;99.90;;;;;;5032873;28;20060;-71
2022/05/21 07:09:57;;;;;;;4.55;2.40;;;15.90;99.90;;;;;;5033024;28;20056;-72
2022/05/21 07:12:23;;;;;;;9.63;3.65;;;16.20;99.90;;;;;;5030414;28;20056;-71
2022/05/21 07:14:49;;;;;;;5.93;3.33;;;16.90;99.90;;;;;;5033069;28;20053;-72
2022/05/21 07:17:16;;;;;;;7.50;3.20;;;16.90;99.90;;;;;;5032537;28;20156;-73
2022/05/21 07:19:42;;;;;;;10.40;3.05;;;16.80;99.90;;;;;;5030832;28;20080;-73
2022/05/21 07:22:09;;;;;;;7.53;3.50;;;16.40;99.90;;;;;;5031164;28;20135;-71
2022/05/21 07:24:40;;;;;;;6.20;3.30;;;16.10;99.90;;;;;;5031219;28;20480;-71
2022/05/21 07:27:06;;;;;;;8.02;3.17;;;16.30;99.90;;;;;;5032287;28;20071;-74
2022/05/21 07:29:35;;;;;;;5.90;3.40;;;16.50;99.90;;;;;;5032742;28;20072;-72
2022/05/21 07:32:00;;;;;;;4.57;2.35;;;16.50;99.90;;;;;;5033560;28;20053;-73
2022/05/21 07:34:27;;;;;;;5.80;3.08;;;16.70;99.90;;;;;;5033578;28;20048;-73
2022/05/21 07:36:52;;;;;;;6.70;2.58;;;17.10;99.90;;;;;;5032949;28;20044;-72
2022/05/21 07:39:18;;;;;;;3.05;2.45;;;17.80;99.90;;;;;;5032551;28;20049;-72
2022/05/21 07:41:44;;;;;;;5.57;2.45;;;17.80;99.90;;;;;;5032942;28;20049;-73
2022/05/21 07:44:09;;;;;;;5.68;2.20;;;17.80;99.90;;;;;;5031911;28;20051;-72
2022/05/21 07:46:35;;;;;;;8.43;3.20;;;17.70;99.90;;;;;;5032270;28;20106;-73
2022/05/21 07:49:01;;;;;;;6.57;2.50;;;18.10;99.90;;;;;;5036411;28;20055;-73
2022/05/21 07:51:27;;;;;;;5.80;2.80;;;18.30;99.90;;;;;;5039352;28;20059;-74
2022/05/21 07:53:52;;;;;;;5.07;2.30;;;19.20;99.90;;;;;;5038451;28;20134;-74
2022/05/21 07:56:18;;;;;;;5.97;2.70;;;20.30;99.90;;;;;;5038339;28;20541;-74
2022/05/21 07:58:44;;;;;;;7.30;2.78;;;20.70;99.90;;;;;;5038025;28;20072;-74
2022/05/21 08:01:11;;;;;;;6.25;2.33;;;20.80;99.90;;;;;;5037893;28;20045;-74
2022/05/21 08:03:37;;;;;;;4.53;2.58;;;20.40;99.90;;;;;;5037863;28;20061;-74
2022/05/21 08:06:03;;;;;;;5.60;2.08;;;20.00;99.90;;;;;;5037491;28;20064;-74
2022/05/21 08:08:29;;;;;;;6.40;2.78;;;20.00;99.90;;;;;;5038220;28;20507;-73
2022/05/21 08:10:55;;;;;;;6.75;2.25;;;20.40;99.90;;;;;;5034542;28;20052;-75
2022/05/21 08:13:21;;;;;;;9.25;3.08;;;20.40;99.90;;;;;;5035392;28;20045;-75
2022/05/21 08:15:47;;;;;;;6.97;3.03;;;19.90;99.90;;;;;;5018411;28;20059;-75
2022/05/21 08:18:13;;;;;;;11.48;2.88;;;19.30;99.90;;;;;;5035903;28;20548;-75
2022/05/21 08:20:40;;;;;;;7.53;2.83;;;20.10;99.90;;;;;;5037678;28;20075;-74
2022/05/21 08:28:36;;;;;;;3.67;2.22;;;20.60;99.90;;;;;;5036762;28;20220;-74
2022/05/21 08:31:03;;;;;;;9.23;3.05;;;21.10;99.90;;;;;;5036672;28;20830;-75
2022/05/21 08:33:29;;;;;;;6.57;2.00;;;21.60;99.90;;;;;;5037718;28;20511;-73
2022/05/21 08:35:55;;;;;;;5.70;2.45;;;21.50;99.90;;;;;;5038908;28;20140;-74
2022/05/21 08:38:21;;;;;;;5.75;2.50;;;21.40;99.90;;;;;;5020608;28;20819;-74
2022/05/21 08:40:58;;;;;;;6.05;2.30;;;20.90;99.90;;;;;;5037283;28;20107;-75
2022/05/21 08:43:46;;;;;;;6.55;2.47;;;20.70;99.90;;;;;;5037071;28;20484;-74
2022/05/21 08:46:15;;;;;;;11.52;3.00;;;20.00;99.90;;;;;;5035733;28;20049;-74
2022/05/21 08:48:52;;;;;;;6.50;2.47;;;19.80;99.90;;;;;;5040159;28;20053;-73
2022/05/21 08:51:22;;;;;;;6.45;2.00;;;20.00;99.90;;;;;;5016488;28;20079;-72
2022/05/21 08:53:51;;;;;;;9.55;3.08;;;19.80;99.90;;;;;;5035863;28;20079;-72
2022/05/21 08:56:18;;;;;;;9.15;2.45;;;19.40;99.90;;;;;;5042074;28;20044;-72
2022/05/21 08:59:01;;;;;;;5.00;2.42;;;18.90;99.90;;;;;;5033906;28;20045;-72
2022/05/21 09:01:27;;;;;;;8.00;2.35;;;18.60;99.90;;;;;;5033331;28;20041;-72
2022/05/21 09:03:54;;;;;;;4.85;2.92;;;18.80;99.90;;;;;;5038850;28;20089;-72
2022/05/21 09:06:46;;;;;;;5.45;2.95;;;18.70;99.90;;;;;;5038135;28;20139;-71
2022/05/21 09:09:18;;;;;;;6.10;2.45;;;18.70;99.90;;;;;;5036437;28;20060;-71
2022/05/21 09:11:48;;;;;;;7.78;2.88;;;18.90;99.90;;;;;;5021058;28;20408;-71
2022/05/21 09:14:16;;;;;;;4.80;2.55;;;19.50;99.90;;;;;;5038211;28;20075;-72
2022/05/21 09:16:56;;;;;;;4.38;1.92;;;19.80;99.30;;;;;;5037573;28;20059;-71
2022/05/21 09:19:26;;;;;;;5.05;2.05;;;20.30;98.80;;;;;;5038658;28;20057;-72
2022/05/21 09:22:09;;;;;;;3.97;1.92;;;20.80;96.40;;;;;;5041841;28;20049;-73
2022/05/21 09:24:44;;;;;;;6.85;2.47;;;20.80;99.90;;;;;;5041585;28;20473;-73
2022/05/21 09:27:45;;;;;;;2.67;1.85;;;21.10;99.90;;;;;;5041106;28;20069;-72
2022/05/21 09:30:30;;;;;;;3.85;1.75;;;21.10;97.60;;;;;;5041565;28;20057;-72
2022/05/21 09:32:58;;;;;;;4.07;1.90;;;21.30;99.90;;;;;;5040703;28;20080;-72
2022/05/21 09:35:47;;;;;;;3.20;2.20;;;21.20;99.90;;;;;;5041652;28;20048;-72
2022/05/21 09:38:15;;;;;;;5.35;1.95;;;21.00;99.90;;;;;;5022691;28;20059;-73
2022/05/21 09:40:42;;;;;;;6.55;1.67;;;20.20;99.90;;;;;;5041352;28;20123;-73
2022/05/21 09:46:26;;;;;;;4.40;2.40;;;19.70;99.70;;;;;;5040950;28;20481;-72
2022/05/21 09:48:54;;;;;;;6.88;2.67;;;20.40;99.90;;;;;;5041078;28;20059;-73
2022/05/21 09:51:31;;;;;;;7.15;2.00;;;20.90;99.90;;;;;;5040811;28;20409;-72
2022/05/21 09:53:58;;;;;;;6.43;1.90;;;20.70;98.10;;;;;;5040721;28;20061;-73
2022/05/21 09:56:32;;;;;;;2.60;1.67;;;20.00;99.90;;;;;;5041025;28;20071;-73
2022/05/21 09:59:19;;;;;;;5.45;2.15;;;19.90;99.90;;;;;;5040876;28;20101;-72
2022/05/21 10:01:53;;;;;;;7.70;2.47;;;19.90;96.70;;;;;;5023495;28;20749;-73
2022/05/21 10:04:35;;;;;;;5.03;2.10;;;19.80;99.90;;;;;;5041142;28;20048;-73
2022/05/21 10:07:13;;;;;;;2.50;1.60;;;19.30;99.90;;;;;;5039915;28;20834;-73
2022/05/21 10:12:39;;;;;;;4.82;2.15;;;18.70;99.90;;;;;;5040848;28;20114;-72
2022/05/21 10:15:19;;;;;;;4.68;1.83;;;18.60;99.90;;;;;;5039459;28;20136;-73
2022/05/21 10:17:53;;;;;;;4.50;1.90;;;18.90;99.90;;;;;;5039836;28;20045;-73
2022/05/21 10:20:41;;;;;;;6.72;1.83;;;19.50;99.90;;;;;;5041066;28;20092;-72
2022/05/21 10:23:45;;;;;;;3.55;1.52;;;19.80;97.50;;;;;;5040143;28;20060;-72
2022/05/21 10:26:16;;;;;;;3.95;2.22;;;19.40;96.70;;;;;;5040103;28;20500;-73
2022/05/21 10:29:13;;;;;;;4.68;1.73;;;18.90;99.20;;;;;;5039257;28;20123;-73
2022/05/21 10:31:51;;;;;;;5.00;1.58;;;18.70;98.10;;;;;;5020510;28;20571;-73
2022/05/21 10:34:38;;;;;;;6.47;2.25;;;18.70;98.00;;;;;;5003501;28;20075;-74
2022/05/21 10:37:22;;;;;;;4.65;1.70;;;18.60;99.60;;;;;;5035523;28;20051;-73
2022/05/21 10:39:53;;;;;;;6.63;1.92;;;18.60;99.90;;;;;;5039379;28;20152;-72
2022/05/21 10:42:56;;;;;;;5.28;1.67;;;19.00;99.90;;;;;;5039487;28;20048;-75
2022/05/21 10:45:31;;;;;;;6.03;1.98;;;19.50;98.60;;;;;;5039230;28;20123;-74
2022/05/21 10:48:32;;;;;;;3.72;1.83;;;19.30;99.90;;;;;;5040643;28;20834;-74
2022/05/21 10:51:10;;;;;;;7.25;2.13;;;19.50;99.90;;;;;;5022431;28;20138;-73
2022/05/21 10:54:01;;;;;;;4.30;1.75;;;20.20;99.90;;;;;;5040016;28;20088;-74
2022/05/21 10:56:56;;;;;;;2.88;1.80;;;19.90;95.80;;;;;;5040141;28;20484;-74
2022/05/21 11:00:00;;;;;;;6.90;1.90;;;19.40;98.30;;;;;;5040314;28;20052;-75
2022/05/21 11:03:05;;;;;;;5.35;2.75;;;19.30;99.90;;;;;;4984336;28;20060;-74
2022/05/21 11:05:41;;;;;;;7.53;2.22;;;19.40;97.00;;;;;;4988850;28;20111;-71
2022/05/21 11:08:23;;;;;;;6.75;2.53;;;19.90;99.90;;;;;;5040414;28;20045;-74
2022/05/21 11:10:59;;;;;;;13.77;2.83;;;20.10;97.40;;;;;;5039707;28;20356;-73
2022/05/21 11:13:35;;;;;;;4.18;1.77;;;20.20;99.90;;;;;;5039573;28;20041;-75
2022/05/21 11:16:12;;;;;;;5.30;1.73;;;20.40;99.90;;;;;;5021219;28;20053;-74
2022/05/21 11:19:10;;;;;;;5.13;1.63;;;20.50;98.60;;;;;;5039333;28;20037;-73
2022/05/21 11:21:53;;;;;;;5.03;1.92;;;20.50;99.90;;;;;;5021984;28;20096;-75
2022/05/21 11:24:34;;;;;;;3.67;1.80;;;20.50;99.90;;;;;;5039551;28;20099;-75
2022/05/21 11:27:18;;;;;;;3.63;1.90;;;20.50;97.50;;;;;;5039844;28;20063;-74
2022/05/21 11:29:47;;;;;;;5.95;2.00;;;20.70;99.90;;;;;;5039438;28;20061;-73
2022/05/21 11:38:30;;;;;;;4.63;1.63;;;20.20;96.50;;;;;;5020990;28;20061;-74
2022/05/21 11:47:05;;;;;;;3.00;1.48;;;19.70;94.20;;;;;;5018872;28;20145;-74
2022/05/21 11:49:45;;;;;;;4.57;1.75;;;19.60;96.30;;;;;;5018780;28;20056;-74
2022/05/21 11:52:31;;;;;;;4.63;2.33;;;19.80;95.90;;;;;;5019493;28;20148;-75
2022/05/21 11:54:57;;;;;;;4.60;1.95;;;19.90;95.70;;;;;;5009843;28;20053;-75
2022/05/21 11:57:42;;;;;;;2.78;1.77;;;20.10;99.00;;;;;;5004631;28;20409;-73
2022/05/21 12:00:17;;;;;;;3.58;1.63;;;20.30;96.00;;;;;;5023550;28;20053;-73
2022/05/21 12:02:54;;;;;;;5.70;2.00;;;20.30;97.00;;;;;;5005838;28;20582;-75
2022/05/21 12:08:11;;;;;;;3.70;1.67;;;20.60;95.40;;;;;;5037908;28;20136;-75
2022/05/21 12:11:01;;;;;;;8.85;2.40;;;20.30;94.80;;;;;;5022290;28;20052;-73
2022/05/21 12:13:33;;;;;;;2.03;1.25;;;20.00;93.50;;;;;;5020468;28;20438;-72
2022/05/21 12:16:24;;;;;;;3.25;1.80;;;20.10;97.00;;;;;;5033425;28;20044;-73
2022/05/21 12:18:54;;;;;;;4.55;1.77;;;20.20;95.40;;;;;;5041277;28;20056;-73
2022/05/21 12:21:29;;;;;;;5.50;1.90;;;20.40;96.60;;;;;;5059628;28;20056;-74
2022/05/21 12:23:55;;;;;;;6.60;1.67;;;20.50;94.90;;;;;;5058410;28;20098;-72
2022/05/21 12:26:32;;;;;;;5.10;1.70;;;20.50;96.50;;;;;;5039565;28;20057;-73
2022/05/21 12:29:17;;;;;;;2.38;1.83;;;20.20;93.70;;;;;;5039735;28;20060;-73
2022/05/21 12:31:51;;;;;;;4.40;2.03;;;20.10;94.20;;;;;;5038553;28;20049;-73
2022/05/21 12:34:23;;;;;;;4.35;1.55;;;20.10;94.10;;;;;;5004842;28;20057;-73
2022/05/21 12:37:10;;;;;;;7.57;2.00;;;20.20;94.90;;;;;;5019711;28;20081;-72
2022/05/21 12:40:01;;;;;;;3.03;1.40;;;20.20;94.00;;;;;;5019846;28;20049;-74
2022/05/21 12:42:57;;;;;;;5.25;1.77;;;20.30;93.50;;;;;;5031821;28;20044;-74
2022/05/21 12:45:43;;;;;;;5.40;1.65;;;20.40;94.90;;;;;;5027324;28;20068;-72
2022/05/21 12:48:21;;;;;;;2.63;2.00;;;20.60;94.40;;;;;;5038568;28;20341;-74
2022/05/21 12:50:59;;;;;;;3.42;1.80;;;20.10;93.20;;;;;;5038012;28;20243;-74
2022/05/21 12:53:38;;;;;;;3.80;1.58;;;20.00;94.00;;;;;;5032472;28;20053;-73
2022/05/21 12:56:23;;;;;;;5.15;2.15;;;19.90;94.90;;;;;;5035189;28;20076;-72
2022/05/21 12:59:29;;;;;;;4.90;1.80;;;20.10;94.20;;;;;;5026098;28;20068;-73
2022/05/21 13:02:11;;;;;;;4.70;1.77;;;20.40;93.80;;;;;;5014748;28;20056;-75
2022/05/21 13:04:39;;;;;;;4.78;1.33;;;20.20;93.20;;;;;;5034778;28;20056;-74
2022/05/21 13:07:15;;;;;;;4.85;1.95;;;20.00;92.70;;;;;;5031776;28;20405;-73
2022/05/21 13:09:57;;;;;;;5.25;2.10;;;20.00;93.90;;;;;;5032683;28;20084;-74
2022/05/21 13:12:25;;;;;;;3.05;1.35;;;19.90;93.10;;;;;;4999140;28;20787;-74
2022/05/21 13:14:51;;;;;;;4.78;1.55;;;19.60;94.00;;;;;;5034577;28;20789;-74
2022/05/21 13:17:36;;;;;;;4.32;2.08;;;19.70;94.90;;;;;;5033914;28;20045;-73
2022/05/21 13:20:15;;;;;;;4.32;1.42;;;19.40;93.80;;;;;;5033664;28;20186;-73
2022/05/21 13:23:12;;;;;;;4.07;1.58;;;19.30;94.30;;;;;;5032449;28;20858;-73
2022/05/21 13:25:39;;;;;;;6.43;1.63;;;19.10;93.50;;;;;;5033504;28;20056;-73
2022/05/21 13:28:16;;;;;;;3.95;1.35;;;19.20;93.40;;;;;;5033027;28;20541;-74
2022/05/21 13:30:47;;;;;;;2.25;1.42;;;19.10;93.10;;;;;;5015745;28;20053;-78
2022/05/21 13:33:26;;;;;;;4.68;1.75;;;19.10;95.80;;;;;;5034938;28;20056;-78
2022/05/21 13:35:56;;;;;;;2.75;1.17;;;19.40;96.10;;;;;;5035041;28;20083;-77
2022/05/21 13:38:31;;;;;;;3.70;1.60;;;19.50;94.30;;;;;;5035911;28;20056;-77
2022/05/21 13:40:59;;;;;;;4.93;2.15;;;19.60;93.80;;;;;;5035028;28;20430;-78
2022/05/21 13:43:34;;;;;;;3.17;1.92;;;19.80;95.70;;;;;;5033288;28;20504;-77
2022/05/21 13:46:04;;;;;;;2.85;1.27;;;19.90;94.40;;;;;;5034777;28;20045;-71